sensor_id;sensor_type;location;lat;lon;timestamp;pressure;altitude;pressure_sealevel;temperature;humidity
71964;BME280;59834;52.124;5.422;2023-05-27T00:02:07;103089.91;;;9.19;75.24
71964;BME280;59834;52.124;5.422;2023-05-27T00:04:34;103095.19;;;9.16;76.09
71964;BME280;59834;52.124;5.422;2023-05-27T00:07:01;103091.81;;;9.11;76.24
71964;BME280;59834;52.124;5.422;2023-05-27T00:09:28;103091.00;;;9.08;76.16
71964;BME280;59834;52.124;5.422;2023-05-27T00:11:55;103096.22;;;9.08;76.37
71964;BME280;59834;52.124;5.422;2023-05-27T00:14:22;103091.13;;;9.03;76.96
71964;BME280;59834;52.124;5.422;2023-05-27T00:16:48;103098.16;;;9.00;77.06
71964;BME280;59834;52.124;5.422;2023-05-27T00:19:16;103098.22;;;8.96;76.75
71964;BME280;59834;52.124;5.422;2023-05-27T00:21:43;103092.13;;;8.96;77.40
71964;BME280;59834;52.124;5.422;2023-05-27T00:24:10;103094.81;;;8.91;77.05
71964;BME280;59834;52.124;5.422;2023-05-27T00:26:37;103086.25;;;8.86;77.15
71964;BME280;59834;52.124;5.422;2023-05-27T00:29:05;103083.63;;;8.86;77.54
71964;BME280;59834;52.124;5.422;2023-05-27T00:31:32;103081.09;;;8.82;77.64
71964;BME280;59834;52.124;5.422;2023-05-27T00:33:58;103087.28;;;8.78;77.86
71964;BME280;59834;52.124;5.422;2023-05-27T00:36:25;103085.56;;;8.75;77.78
71964;BME280;59834;52.124;5.422;2023-05-27T00:38:52;103078.75;;;8.69;78.03
71964;BME280;59834;52.124;5.422;2023-05-27T00:41:19;103077.06;;;8.67;78.89
71964;BME280;59834;52.124;5.422;2023-05-27T00:43:46;103088.41;;;8.64;78.42
71964;BME280;59834;52.124;5.422;2023-05-27T00:46:13;103079.78;;;8.61;78.85
71964;BME280;59834;52.124;5.422;2023-05-27T00:48:41;103076.31;;;8.60;78.71
71964;BME280;59834;52.124;5.422;2023-05-27T00:51:10;103072.97;;;8.54;78.82
71964;BME280;59834;52.124;5.422;2023-05-27T00:53:39;103069.50;;;8.52;78.89
71964;BME280;59834;52.124;5.422;2023-05-27T00:56:31;103070.41;;;8.52;78.57
71964;BME280;59834;52.124;5.422;2023-05-27T00:58:58;103065.22;;;8.49;79.50
71964;BME280;59834;52.124;5.422;2023-05-27T01:01:30;103065.28;;;8.44;79.37
71964;BME280;59834;52.124;5.422;2023-05-27T01:03:59;103053.25;;;8.36;79.39
71964;BME280;59834;52.124;5.422;2023-05-27T01:06:41;103046.31;;;8.35;79.89
71964;BME280;59834;52.124;5.422;2023-05-27T01:11:46;103053.47;;;8.23;80.65
71964;BME280;59834;52.124;5.422;2023-05-27T01:14:16;103062.16;;;8.24;80.41
71964;BME280;59834;52.124;5.422;2023-05-27T01:16:46;103061.34;;;8.22;80.76
71964;BME280;59834;52.124;5.422;2023-05-27T01:19:26;103054.38;;;8.21;80.45
71964;BME280;59834;52.124;5.422;2023-05-27T01:21:59;103058.81;;;8.17;81.00
71964;BME280;59834;52.124;5.422;2023-05-27T01:24:26;103058.06;;;8.11;81.85
71964;BME280;59834;52.124;5.422;2023-05-27T01:26:54;103059.75;;;8.13;80.99
71964;BME280;59834;52.124;5.422;2023-05-27T01:29:29;103063.25;;;8.12;81.09
71964;BME280;59834;52.124;5.422;2023-05-27T01:32:12;103061.47;;;8.14;81.50
71964;BME280;59834;52.124;5.422;2023-05-27T01:34:51;103051.13;;;8.10;80.63
71964;BME280;59834;52.124;5.422;2023-05-27T01:37:21;103058.16;;;8.06;81.46
71964;BME280;59834;52.124;5.422;2023-05-27T01:39:50;103053.03;;;8.01;81.71
71964;BME280;59834;52.124;5.422;2023-05-27T01:42:19;103059.97;;;8.01;81.94
71964;BME280;59834;52.124;5.422;2023-05-27T01:44:49;103049.66;;;7.95;81.77
71964;BME280;59834;52.124;5.422;2023-05-27T01:47:17;103052.31;;;7.92;82.68
71964;BME280;59834;52.124;5.422;2023-05-27T01:49:45;103054.94;;;7.90;82.80
71964;BME280;59834;52.124;5.422;2023-05-27T01:52:12;103051.56;;;7.85;82.47
71964;BME280;59834;52.124;5.422;2023-05-27T01:54:42;103056.81;;;7.82;83.20
71964;BME280;59834;52.124;5.422;2023-05-27T01:57:09;103056.91;;;7.76;83.73
71964;BME280;59834;52.124;5.422;2023-05-27T01:59:36;103057.81;;;7.73;83.89
71964;BME280;59834;52.124;5.422;2023-05-27T02:02:03;103067.44;;;7.70;84.07
71964;BME280;59834;52.124;5.422;2023-05-27T02:04:29;103060.47;;;7.70;84.25
71964;BME280;59834;52.124;5.422;2023-05-27T02:06:56;103069.16;;;7.71;84.48
71964;BME280;59834;52.124;5.422;2023-05-27T02:09:24;103065.69;;;7.70;84.33
71964;BME280;59834;52.124;5.422;2023-05-27T02:11:51;103070.94;;;7.67;84.29
71964;BME280;59834;52.124;5.422;2023-05-27T02:14:18;103072.69;;;7.67;84.29
71964;BME280;59834;52.124;5.422;2023-05-27T02:16:46;103080.50;;;7.67;84.30
71964;BME280;59834;52.124;5.422;2023-05-27T02:19:17;103065.81;;;7.63;84.31
71964;BME280;59834;52.124;5.422;2023-05-27T02:21:46;103068.44;;;7.61;84.64
71964;BME280;59834;52.124;5.422;2023-05-27T02:24:13;103063.28;;;7.56;84.49
71964;BME280;59834;52.124;5.422;2023-05-27T02:26:40;103067.63;;;7.57;84.87
71964;BME280;59834;52.124;5.422;2023-05-27T02:29:08;103070.28;;;7.54;85.32
71964;BME280;59834;52.124;5.422;2023-05-27T02:31:34;103057.31;;;7.51;85.20
71964;BME280;59834;52.124;5.422;2023-05-27T02:34:01;103047.78;;;7.47;85.57
71964;BME280;59834;52.124;5.422;2023-05-27T02:36:30;103050.44;;;7.46;85.57
71964;BME280;59834;52.124;5.422;2023-05-27T02:38:59;103052.22;;;7.41;85.51
71964;BME280;59834;52.124;5.422;2023-05-27T02:41:45;103054.06;;;7.34;86.21
71964;BME280;59834;52.124;5.422;2023-05-27T02:44:15;103052.41;;;7.30;86.04
71964;BME280;59834;52.124;5.422;2023-05-27T02:46:42;103052.44;;;7.27;86.31
71964;BME280;59834;52.124;5.422;2023-05-27T02:49:10;103061.16;;;7.26;86.04
71964;BME280;59834;52.124;5.422;2023-05-27T02:51:39;103058.53;;;7.26;86.34
71964;BME280;59834;52.124;5.422;2023-05-27T02:54:06;103049.91;;;7.22;86.42
71964;BME280;59834;52.124;5.422;2023-05-27T02:56:33;103049.94;;;7.19;86.44
71964;BME280;59834;52.124;5.422;2023-05-27T02:59:00;103045.63;;;7.17;86.57
71964;BME280;59834;52.124;5.422;2023-05-27T03:01:27;103051.75;;;7.16;87.06
71964;BME280;59834;52.124;5.422;2023-05-27T03:03:56;103044.81;;;7.13;87.10
71964;BME280;59834;52.124;5.422;2023-05-27T03:06:26;103050.09;;;7.08;87.07
71964;BME280;59834;52.124;5.422;2023-05-27T03:08:53;103060.53;;;7.07;87.85
71964;BME280;59834;52.124;5.422;2023-05-27T03:11:19;103055.31;;;7.07;87.79
71964;BME280;59834;52.124;5.422;2023-05-27T03:13:50;103062.31;;;7.05;87.86
71964;BME280;59834;52.124;5.422;2023-05-27T03:16:17;103065.81;;;7.02;87.93
71964;BME280;59834;52.124;5.422;2023-05-27T03:18:48;103060.59;;;7.02;87.67
71964;BME280;59834;52.124;5.422;2023-05-27T03:21:15;103063.25;;;6.99;88.21
71964;BME280;59834;52.124;5.422;2023-05-27T03:23:42;103061.56;;;6.95;88.46
71964;BME280;59834;52.124;5.422;2023-05-27T03:26:09;103067.66;;;6.93;88.50
71964;BME280;59834;52.124;5.422;2023-05-27T03:28:37;103060.75;;;6.90;88.50
71964;BME280;59834;52.124;5.422;2023-05-27T03:31:06;103056.44;;;6.89;88.79
71964;BME280;59834;52.124;5.422;2023-05-27T03:33:35;103055.53;;;6.90;88.46
71964;BME280;59834;52.124;5.422;2023-05-27T03:36:04;103046.88;;;6.91;88.49
71964;BME280;59834;52.124;5.422;2023-05-27T03:38:31;103048.53;;;6.94;88.08
71964;BME280;59834;52.124;5.422;2023-05-27T03:40:58;103051.16;;;6.94;88.90
71964;BME280;59834;52.124;5.422;2023-05-27T03:43:26;103043.38;;;6.91;88.96
71964;BME280;59834;52.124;5.422;2023-05-27T03:45:53;103050.31;;;6.92;89.19
71964;BME280;59834;52.124;5.422;2023-05-27T03:48:21;103046.84;;;6.94;89.24
71964;BME280;59834;52.124;5.422;2023-05-27T03:50:47;103049.38;;;6.97;88.91
71964;BME280;59834;52.124;5.422;2023-05-27T03:53:15;103044.97;;;7.02;88.66
71964;BME280;59834;52.124;5.422;2023-05-27T03:55:43;103041.47;;;7.05;89.16
71964;BME280;59834;52.124;5.422;2023-05-27T03:58:15;103031.91;;;7.05;88.92
71964;BME280;59834;52.124;5.422;2023-05-27T04:00:42;103031.84;;;7.10;88.67
71964;BME280;59834;52.124;5.422;2023-05-27T04:03:14;103035.25;;;7.14;88.67
71964;BME280;59834;52.124;5.422;2023-05-27T04:05:46;103034.41;;;7.13;88.15
71964;BME280;59834;52.124;5.422;2023-05-27T04:08:13;103032.56;;;7.20;88.48
71964;BME280;59834;52.124;5.422;2023-05-27T04:10:41;103028.19;;;7.25;88.57
71964;BME280;59834;52.124;5.422;2023-05-27T04:13:08;103030.69;;;7.31;88.42
71964;BME280;59834;52.124;5.422;2023-05-27T04:15:36;103037.53;;;7.38;87.93
71964;BME280;59834;52.124;5.422;2023-05-27T04:18:03;103028.78;;;7.42;87.80
71964;BME280;59834;52.124;5.422;2023-05-27T04:20:36;103027.47;;;7.69;87.78
71964;BME280;59834;52.124;5.422;2023-05-27T04:23:03;103029.09;;;8.72;84.79
71964;BME280;59834;52.124;5.422;2023-05-27T04:25:30;103016.50;;;9.66;81.00
71964;BME280;59834;52.124;5.422;2023-05-27T04:27:57;103015.38;;;10.09;77.82
71964;BME280;59834;52.124;5.422;2023-05-27T04:30:24;103022.44;;;10.40;76.51
71964;BME280;59834;52.124;5.422;2023-05-27T04:32:51;103015.25;;;10.77;75.21
71964;BME280;59834;52.124;5.422;2023-05-27T04:35:19;103008.81;;;10.88;73.07
71964;BME280;59834;52.124;5.422;2023-05-27T04:37:47;103017.25;;;10.97;72.49
71964;BME280;59834;52.124;5.422;2023-05-27T04:40:15;103024.09;;;11.57;71.36
71964;BME280;59834;52.124;5.422;2023-05-27T04:42:42;103016.19;;;11.86;69.88
71964;BME280;59834;52.124;5.422;2023-05-27T04:45:12;103013.28;;;11.93;69.58
71964;BME280;59834;52.124;5.422;2023-05-27T04:47:39;103014.06;;;12.45;67.64
71964;BME280;59834;52.124;5.422;2023-05-27T04:50:08;103014.47;;;12.58;66.31
71964;BME280;59834;52.124;5.422;2023-05-27T04:52:38;103001.44;;;12.32;66.80
71964;BME280;59834;52.124;5.422;2023-05-27T04:55:09;103001.34;;;12.35;67.56
71964;BME280;59834;52.124;5.422;2023-05-27T04:57:36;103002.94;;;12.39;67.23
71964;BME280;59834;52.124;5.422;2023-05-27T05:00:03;103005.88;;;12.30;67.27
71964;BME280;59834;52.124;5.422;2023-05-27T05:02:30;103003.38;;;12.73;66.48
71964;BME280;59834;52.124;5.422;2023-05-27T05:05:02;102998.91;;;12.99;65.46
71964;BME280;59834;52.124;5.422;2023-05-27T05:07:29;102992.47;;;13.50;63.45
71964;BME280;59834;52.124;5.422;2023-05-27T05:09:56;102993.28;;;13.73;63.34
71964;BME280;59834;52.124;5.422;2023-05-27T05:12:24;102997.34;;;14.21;61.27
71964;BME280;59834;52.124;5.422;2023-05-27T05:14:52;102997.03;;;13.87;62.25
71964;BME280;59834;52.124;5.422;2023-05-27T05:17:19;102993.22;;;14.34;61.46
71964;BME280;59834;52.124;5.422;2023-05-27T05:19:51;102996.56;;;14.77;59.45
71964;BME280;59834;52.124;5.422;2023-05-27T05:22:21;102994.53;;;14.44;60.11
71964;BME280;59834;52.124;5.422;2023-05-27T05:24:50;103002.69;;;14.19;60.98
71964;BME280;59834;52.124;5.422;2023-05-27T05:27:16;102997.81;;;14.49;59.96
71964;BME280;59834;52.124;5.422;2023-05-27T05:29:46;102989.00;;;14.50;59.52
71964;BME280;59834;52.124;5.422;2023-05-27T05:32:17;102986.50;;;14.85;59.58
71964;BME280;59834;52.124;5.422;2023-05-27T05:34:44;102980.25;;;14.88;58.28
71964;BME280;59834;52.124;5.422;2023-05-27T05:37:11;102976.88;;;14.65;59.71
71964;BME280;59834;52.124;5.422;2023-05-27T05:39:37;102977.19;;;14.78;58.94
71964;BME280;59834;52.124;5.422;2023-05-27T05:42:09;102980.19;;;14.89;58.65
71964;BME280;59834;52.124;5.422;2023-05-27T05:44:36;102974.00;;;14.52;59.74
71964;BME280;59834;52.124;5.422;2023-05-27T05:47:03;102978.56;;;15.04;58.87
71964;BME280;59834;52.124;5.422;2023-05-27T05:49:30;102980.97;;;15.08;58.83
71964;BME280;59834;52.124;5.422;2023-05-27T05:51:59;102973.88;;;15.45;57.18
71964;BME280;59834;52.124;5.422;2023-05-27T05:54:26;102972.19;;;14.91;59.13
71964;BME280;59834;52.124;5.422;2023-05-27T05:56:53;102976.03;;;14.83;59.87
71964;BME280;59834;52.124;5.422;2023-05-27T05:59:22;102976.81;;;15.22;58.90
71964;BME280;59834;52.124;5.422;2023-05-27T06:01:49;102971.88;;;14.97;59.14
71964;BME280;59834;52.124;5.422;2023-05-27T06:04:19;102973.03;;;14.91;59.70
71964;BME280;59834;52.124;5.422;2023-05-27T06:06:45;102971.41;;;15.42;58.68
71964;BME280;59834;52.124;5.422;2023-05-27T06:09:13;102973.59;;;15.34;58.92
71964;BME280;59834;52.124;5.422;2023-05-27T06:11:41;102965.75;;;15.50;58.32
71964;BME280;59834;52.124;5.422;2023-05-27T06:14:08;102966.78;;;15.11;59.27
71964;BME280;59834;52.124;5.422;2023-05-27T06:16:35;102964.28;;;15.27;58.93
71964;BME280;59834;52.124;5.422;2023-05-27T06:19:02;102964.50;;;14.86;60.39
71964;BME280;59834;52.124;5.422;2023-05-27T06:21:30;102958.13;;;15.09;60.02
71964;BME280;59834;52.124;5.422;2023-05-27T06:23:58;102945.94;;;15.41;59.84
71964;BME280;59834;52.124;5.422;2023-05-27T06:26:27;102949.06;;;15.49;59.20
71964;BME280;59834;52.124;5.422;2023-05-27T06:28:54;102939.53;;;15.47;59.96
71964;BME280;59834;52.124;5.422;2023-05-27T06:31:21;102932.44;;;15.82;58.75
71964;BME280;59834;52.124;5.422;2023-05-27T06:33:48;102931.06;;;16.08;58.08
71964;BME280;59834;52.124;5.422;2023-05-27T06:36:15;102931.03;;;16.41;57.30
71964;BME280;59834;52.124;5.422;2023-05-27T06:38:50;102935.19;;;16.45;55.95
71964;BME280;59834;52.124;5.422;2023-05-27T06:41:18;102930.16;;;15.92;58.01
71964;BME280;59834;52.124;5.422;2023-05-27T06:43:45;102936.06;;;16.30;57.88
71964;BME280;59834;52.124;5.422;2023-05-27T06:46:12;102936.06;;;16.62;57.33
71964;BME280;59834;52.124;5.422;2023-05-27T06:48:44;102930.94;;;16.59;56.72
71964;BME280;59834;52.124;5.422;2023-05-27T06:51:11;102929.31;;;16.56;56.85
71964;BME280;59834;52.124;5.422;2023-05-27T06:53:38;102930.09;;;15.93;57.97
71964;BME280;59834;52.124;5.422;2023-05-27T06:56:05;102919.72;;;15.90;59.06
71964;BME280;59834;52.124;5.422;2023-05-27T06:58:32;102921.66;;;16.02;58.78
71964;BME280;59834;52.124;5.422;2023-05-27T07:01:01;102917.13;;;16.38;58.07
71964;BME280;59834;52.124;5.422;2023-05-27T07:03:29;102903.81;;;16.55;57.13
71964;BME280;59834;52.124;5.422;2023-05-27T07:05:55;102906.22;;;16.91;56.44
71964;BME280;59834;52.124;5.422;2023-05-27T07:08:25;102899.75;;;16.81;56.37
71964;BME280;59834;52.124;5.422;2023-05-27T07:10:52;102905.53;;;16.24;58.15
71964;BME280;59834;52.124;5.422;2023-05-27T07:13:18;102912.47;;;15.59;59.66
71964;BME280;59834;52.124;5.422;2023-05-27T07:15:47;102906.03;;;14.95;61.08
71964;BME280;59834;52.124;5.422;2023-05-27T07:18:14;102908.94;;;14.72;62.24
71964;BME280;59834;52.124;5.422;2023-05-27T07:20:43;102902.09;;;14.68;63.21
71964;BME280;59834;52.124;5.422;2023-05-27T07:23:11;102899.75;;;14.61;62.81
71964;BME280;59834;52.124;5.422;2023-05-27T07:25:40;102905.97;;;14.60;63.16
71964;BME280;59834;52.124;5.422;2023-05-27T07:28:07;102903.81;;;14.69;62.30
71964;BME280;59834;52.124;5.422;2023-05-27T07:30:34;102899.28;;;14.53;62.92
71964;BME280;59834;52.124;5.422;2023-05-27T07:33:02;102906.88;;;14.41;63.84
71964;BME280;59834;52.124;5.422;2023-05-27T07:35:29;102906.94;;;14.39;63.36
71964;BME280;59834;52.124;5.422;2023-05-27T07:37:56;102899.69;;;14.63;63.06
71964;BME280;59834;52.124;5.422;2023-05-27T07:40:25;102891.13;;;14.77;62.84
71964;BME280;59834;52.124;5.422;2023-05-27T07:42:55;102903.72;;;14.89;62.97
71964;BME280;59834;52.124;5.422;2023-05-27T07:45:35;102897.81;;;14.84;61.68
71964;BME280;59834;52.124;5.422;2023-05-27T07:48:02;102893.31;;;14.86;62.51
71964;BME280;59834;52.124;5.422;2023-05-27T07:50:31;102895.41;;;14.79;62.09
71964;BME280;59834;52.124;5.422;2023-05-27T07:53:01;102887.69;;;14.75;61.97
71964;BME280;59834;52.124;5.422;2023-05-27T07:55:28;102890.69;;;14.86;61.96
71964;BME280;59834;52.124;5.422;2023-05-27T07:57:55;102874.31;;;14.79;62.31
71964;BME280;59834;52.124;5.422;2023-05-27T08:00:22;102876.03;;;14.98;62.68
71964;BME280;59834;52.124;5.422;2023-05-27T08:02:48;102875.13;;;15.16;61.69
71964;BME280;59834;52.124;5.422;2023-05-27T08:05:15;102875.72;;;15.21;61.42
71964;BME280;59834;52.124;5.422;2023-05-27T08:07:42;102866.66;;;15.09;61.74
71964;BME280;59834;52.124;5.422;2023-05-27T08:10:15;102863.56;;;15.36;60.97
71964;BME280;59834;52.124;5.422;2023-05-27T08:12:43;102857.19;;;15.23;61.60
71964;BME280;59834;52.124;5.422;2023-05-27T08:15:13;102851.44;;;15.32;60.91
71964;BME280;59834;52.124;5.422;2023-05-27T08:17:40;102843.31;;;15.52;60.09
71964;BME280;59834;52.124;5.422;2023-05-27T08:20:11;102844.13;;;15.88;59.25
71964;BME280;59834;52.124;5.422;2023-05-27T08:22:38;102844.88;;;15.56;60.21
71964;BME280;59834;52.124;5.422;2023-05-27T08:25:05;102835.69;;;15.30;60.71
71964;BME280;59834;52.124;5.422;2023-05-27T08:27:47;102837.34;;;15.16;61.26
71964;BME280;59834;52.124;5.422;2023-05-27T08:30:14;102839.50;;;15.07;61.31
71964;BME280;59834;52.124;5.422;2023-05-27T08:32:43;102841.88;;;15.12;61.72
71964;BME280;59834;52.124;5.422;2023-05-27T08:35:12;102834.38;;;15.22;60.70
71964;BME280;59834;52.124;5.422;2023-05-27T08:37:40;102838.31;;;15.30;60.84
71964;BME280;59834;52.124;5.422;2023-05-27T08:40:15;102825.03;;;15.67;61.28
71964;BME280;59834;52.124;5.422;2023-05-27T08:42:43;102822.31;;;15.84;59.33
71964;BME280;59834;52.124;5.422;2023-05-27T08:45:11;102816.19;;;15.99;59.72
71964;BME280;59834;52.124;5.422;2023-05-27T08:47:38;102810.22;;;16.12;59.28
71964;BME280;59834;52.124;5.422;2023-05-27T08:50:09;102810.16;;;16.13;58.97
71964;BME280;59834;52.124;5.422;2023-05-27T08:52:46;102811.59;;;15.87;59.11
71964;BME280;59834;52.124;5.422;2023-05-27T08:55:20;102803.38;;;15.76;59.74
71964;BME280;59834;52.124;5.422;2023-05-27T08:57:54;102804.78;;;16.15;58.18
71964;BME280;59834;52.124;5.422;2023-05-27T09:00:27;102800.00;;;16.06;58.70
71964;BME280;59834;52.124;5.422;2023-05-27T09:02:56;102796.63;;;16.03;57.87
71964;BME280;59834;52.124;5.422;2023-05-27T09:05:26;102796.41;;;16.22;57.72
71964;BME280;59834;52.124;5.422;2023-05-27T09:07:54;102793.19;;;16.33;57.40
71964;BME280;59834;52.124;5.422;2023-05-27T09:10:23;102781.06;;;16.45;57.11
71964;BME280;59834;52.124;5.422;2023-05-27T09:13:06;102789.59;;;16.34;57.64
71964;BME280;59834;52.124;5.422;2023-05-27T09:15:34;102776.25;;;16.52;56.99
71964;BME280;59834;52.124;5.422;2023-05-27T09:18:02;102777.25;;;16.65;56.87
71964;BME280;59834;52.124;5.422;2023-05-27T09:20:30;102779.16;;;16.93;55.55
71964;BME280;59834;52.124;5.422;2023-05-27T09:23:03;102768.72;;;16.60;56.84
71964;BME280;59834;52.124;5.422;2023-05-27T09:25:30;102771.63;;;16.71;55.82
71964;BME280;59834;52.124;5.422;2023-05-27T09:27:58;102770.59;;;16.73;55.24
71964;BME280;59834;52.124;5.422;2023-05-27T09:30:28;102765.13;;;16.46;57.12
71964;BME280;59834;52.124;5.422;2023-05-27T09:33:02;102763.91;;;16.52;56.38
71964;BME280;59834;52.124;5.422;2023-05-27T09:35:37;102764.88;;;16.35;57.01
71964;BME280;59834;52.124;5.422;2023-05-27T09:38:08;102763.06;;;16.52;56.42
71964;BME280;59834;52.124;5.422;2023-05-27T09:40:44;102756.00;;;16.82;55.78
71964;BME280;59834;52.124;5.422;2023-05-27T09:43:14;102751.66;;;16.81;55.37
71964;BME280;59834;52.124;5.422;2023-05-27T09:45:45;102749.31;;;16.91;54.97
71964;BME280;59834;52.124;5.422;2023-05-27T09:48:12;102746.78;;;17.04;54.49
71964;BME280;59834;52.124;5.422;2023-05-27T09:50:40;102752.44;;;17.26;54.74
71964;BME280;59834;52.124;5.422;2023-05-27T09:53:09;102744.13;;;17.47;54.36
71964;BME280;59834;52.124;5.422;2023-05-27T09:55:40;102745.91;;;17.46;53.78
71964;BME280;59834;52.124;5.422;2023-05-27T09:58:17;102752.34;;;17.56;52.88
71964;BME280;59834;52.124;5.422;2023-05-27T10:00:45;102749.03;;;17.53;52.81
71964;BME280;59834;52.124;5.422;2023-05-27T10:03:17;102744.59;;;17.53;52.74
71964;BME280;59834;52.124;5.422;2023-05-27T10:05:50;102733.03;;;17.68;52.90
71964;BME280;59834;52.124;5.422;2023-05-27T10:08:19;102730.22;;;17.57;52.74
71964;BME280;59834;52.124;5.422;2023-05-27T10:10:52;102730.44;;;17.54;53.01
71964;BME280;59834;52.124;5.422;2023-05-27T10:13:23;102728.97;;;17.63;51.92
71964;BME280;59834;52.124;5.422;2023-05-27T10:15:52;102725.09;;;17.68;52.03
71964;BME280;59834;52.124;5.422;2023-05-27T10:18:24;102721.06;;;17.77;51.53
71964;BME280;59834;52.124;5.422;2023-05-27T10:20:53;102723.53;;;17.93;51.67
71964;BME280;59834;52.124;5.422;2023-05-27T10:23:25;102717.97;;;17.98;50.06
71964;BME280;59834;52.124;5.422;2023-05-27T10:25:57;102717.06;;;17.84;49.63
71964;BME280;59834;52.124;5.422;2023-05-27T10:28:34;102708.75;;;17.76;50.76
71964;BME280;59834;52.124;5.422;2023-05-27T10:31:29;102703.34;;;18.05;51.08
71964;BME280;59834;52.124;5.422;2023-05-27T10:33:57;102705.25;;;18.43;49.26
71964;BME280;59834;52.124;5.422;2023-05-27T10:36:31;102693.41;;;18.48;48.66
71964;BME280;59834;52.124;5.422;2023-05-27T10:39:03;102696.28;;;18.58;48.71
71964;BME280;59834;52.124;5.422;2023-05-27T10:41:49;102693.94;;;18.66;49.09
71964;BME280;59834;52.124;5.422;2023-05-27T10:44:29;102687.66;;;18.42;49.80
71964;BME280;59834;52.124;5.422;2023-05-27T10:49:34;102683.31;;;18.53;48.86
71964;BME280;59834;52.124;5.422;2023-05-27T10:52:08;102678.91;;;18.79;47.41
71964;BME280;59834;52.124;5.422;2023-05-27T10:54:43;102681.56;;;19.05;47.49
71964;BME280;59834;52.124;5.422;2023-05-27T10:57:19;102677.19;;;18.91;46.52
71964;BME280;59834;52.124;5.422;2023-05-27T10:59:52;102660.44;;;18.91;45.07
71964;BME280;59834;52.124;5.422;2023-05-27T11:02:28;102664.03;;;19.15;45.34
71964;BME280;59834;52.124;5.422;2023-05-27T11:04:59;102664.47;;;19.09;46.07
71964;BME280;59834;52.124;5.422;2023-05-27T11:07:27;102657.69;;;19.05;45.25
71964;BME280;59834;52.124;5.422;2023-05-27T11:09:54;102660.75;;;19.12;44.99
71964;BME280;59834;52.124;5.422;2023-05-27T11:12:23;102654.50;;;19.00;44.36
71964;BME280;59834;52.124;5.422;2023-05-27T11:14:52;102654.19;;;18.92;44.67
71964;BME280;59834;52.124;5.422;2023-05-27T11:17:19;102647.00;;;19.30;44.01
71964;BME280;59834;52.124;5.422;2023-05-27T11:19:47;102639.13;;;19.42;43.78
71964;BME280;59834;52.124;5.422;2023-05-27T11:22:14;102638.88;;;19.45;43.81
71964;BME280;59834;52.124;5.422;2023-05-27T11:24:43;102623.63;;;19.36;43.98
71964;BME280;59834;52.124;5.422;2023-05-27T11:27:21;102621.56;;;19.52;44.62
71964;BME280;59834;52.124;5.422;2023-05-27T11:29:51;102616.66;;;19.83;45.43
71964;BME280;59834;52.124;5.422;2023-05-27T11:32:19;102603.94;;;20.10;44.32
71964;BME280;59834;52.124;5.422;2023-05-27T11:34:48;102602.25;;;20.09;43.82
71964;BME280;59834;52.124;5.422;2023-05-27T11:37:17;102598.75;;;20.09;43.40
71964;BME280;59834;52.124;5.422;2023-05-27T11:39:51;102601.81;;;20.38;43.58
71964;BME280;59834;52.124;5.422;2023-05-27T11:42:22;102599.53;;;20.33;42.22
71964;BME280;59834;52.124;5.422;2023-05-27T11:44:53;102597.69;;;20.22;42.53
71964;BME280;59834;52.124;5.422;2023-05-27T11:47:21;102593.09;;;20.24;43.17
71964;BME280;59834;52.124;5.422;2023-05-27T11:49:49;102588.38;;;19.82;41.89
71964;BME280;59834;52.124;5.422;2023-05-27T11:52:17;102577.34;;;19.75;42.80
71964;BME280;59834;52.124;5.422;2023-05-27T11:54:44;102578.19;;;19.99;42.10
71964;BME280;59834;52.124;5.422;2023-05-27T11:57:23;102572.03;;;19.75;43.22
71964;BME280;59834;52.124;5.422;2023-05-27T11:59:51;102575.19;;;19.69;42.35
71964;BME280;59834;52.124;5.422;2023-05-27T12:02:18;102566.44;;;19.91;43.54
71964;BME280;59834;52.124;5.422;2023-05-27T12:04:48;102563.31;;;20.08;40.18
71964;BME280;59834;52.124;5.422;2023-05-27T12:07:18;102552.25;;;20.25;41.78
71964;BME280;59834;52.124;5.422;2023-05-27T12:09:50;102558.56;;;20.47;41.76
71964;BME280;59834;52.124;5.422;2023-05-27T12:12:20;102561.72;;;20.52;42.00
71964;BME280;59834;52.124;5.422;2023-05-27T12:14:46;102554.91;;;20.25;41.35
71964;BME280;59834;52.124;5.422;2023-05-27T12:17:13;102547.50;;;20.18;40.67
71964;BME280;59834;52.124;5.422;2023-05-27T12:19:46;102545.72;;;20.30;41.58
71964;BME280;59834;52.124;5.422;2023-05-27T12:22:12;102539.44;;;20.42;41.42
71964;BME280;59834;52.124;5.422;2023-05-27T12:24:41;102540.19;;;20.55;39.73
71964;BME280;59834;52.124;5.422;2023-05-27T12:27:09;102537.50;;;20.44;39.01
71964;BME280;59834;52.124;5.422;2023-05-27T12:29:36;102530.84;;;20.27;39.84
71964;BME280;59834;52.124;5.422;2023-05-27T12:32:06;102537.66;;;20.42;39.42
71964;BME280;59834;52.124;5.422;2023-05-27T12:34:32;102521.72;;;20.54;39.98
71964;BME280;59834;52.124;5.422;2023-05-27T12:36:59;102525.91;;;20.79;39.78
71964;BME280;59834;52.124;5.422;2023-05-27T12:39:27;102520.59;;;20.79;38.98
71964;BME280;59834;52.124;5.422;2023-05-27T12:41:54;102507.38;;;20.88;39.97
71964;BME280;59834;52.124;5.422;2023-05-27T12:44:21;102517.78;;;21.03;38.87
71964;BME280;59834;52.124;5.422;2023-05-27T12:46:47;102507.72;;;21.06;39.00
71964;BME280;59834;52.124;5.422;2023-05-27T12:49:15;102502.50;;;21.16;39.57
71964;BME280;59834;52.124;5.422;2023-05-27T12:51:42;102503.16;;;21.40;38.41
71964;BME280;59834;52.124;5.422;2023-05-27T12:54:09;102498.66;;;21.41;38.54
71964;BME280;59834;52.124;5.422;2023-05-27T12:56:36;102498.22;;;21.57;38.90
71964;BME280;59834;52.124;5.422;2023-05-27T12:59:03;102496.13;;;21.28;38.32
71964;BME280;59834;52.124;5.422;2023-05-27T13:01:30;102495.25;;;21.07;38.22
71964;BME280;59834;52.124;5.422;2023-05-27T13:03:57;102493.69;;;21.04;38.65
71964;BME280;59834;52.124;5.422;2023-05-27T13:06:24;102490.28;;;21.02;38.63
71964;BME280;59834;52.124;5.422;2023-05-27T13:09:02;102484.50;;;20.97;39.97